Terminal Aerodrome Forecast
Issued by NWS Melbourne, FL

Home | Current Version | Previous Version | Text Only | Print | Product List | Glossary On
Versions: 1 2 3 4 5 6 7 8 9 10 11 12 13 14 15 16 17 18 19 20 21 22 23
000
FTUS42 KMLB 201202 AAA
TAFDAB
TAF AMD
KDAB 201202Z 2012/2112 VRB03KT P6SM -RA VCSH SCT020 BKN035 OVC070
      TEMPO 2012/2014 2SM SHRA SCT010 OVC020
     FM201400 11008KT P6SM -RA VCSH SCT025 BKN040 OVC070
      TEMPO 2014/2018 3SM SHRA BKN025
     FM202300 12005KT P6SM FEW025 BKN070 OVC100=

USA.gov is the U.S. government's official web portal to all federal, state and local government web resources and services.